Weather observations for the past three days for
Pampa, Perry Lefors Field Airport
Metric (Imperial)
Date Time (cdt) Wind (kph) Vis. (km) Weather Sky Cond. Temperature (ºC) Relative Humidity Wind Chill (°C) Heat Index (°C) Pressure Precipitation (cm)
Air Dwpt 6 hour altimeter (cm) sea level (mb) 1 hr 3 hr 6 hr
Max. Min.
09 08:55 SW 15 16.09 Fair CLR 20.9 14.3 66% 76.07 0.0
09 08:35 SW 15 16.09 Fair CLR 19.4 13.5 69% 76.1 0.0
09 08:15 S 9 16.09 Fair CLR 17.8 11 65% 76.1 0.0
09 07:55 S 11 16.09 Fair CLR 15.5 8.5 63% 76.07 0.0
09 07:35 S 9 16.09 Fair CLR 13.9 7.2 64% 76.07 0.0
09 07:15 S 11 16.09 Fair CLR 11.6 6.9 73% 76.05 0.0
09 06:55 S 13 16.09 Fair CLR 11.3 7 15.7 11.2 75% 76.02 0.0
09 06:35 SE 13 16.09 Fair CLR 12.2 6.7 69% 76.02 0.0
09 06:15 SE 15 16.09 Fair CLR 12.7 6.5 66% 76.02 0.0
09 05:55 SE 15 16.09 Fair CLR 13.4 5.9 61% 76.05 0.0
09 05:35 SE 15 16.09 Fair CLR 13.4 6.1 62% 76.05 0.0
09 05:15 SE 15 16.09 Fair CLR 13.6 6.3 62% 76.05 0.0
09 04:55 SE 17 16.09 Fair CLR 14 6.1 59% 76.02 0.0
09 04:35 SE 15 16.09 Fair CLR 13.7 5.8 59% 76.02 0.0
09 04:15 SE 19 16.09 Fair CLR 14 5.6 57% 76.05 0.0
09 03:55 SE 19 16.09 Fair CLR 14.1 5.3 56% 76.05 0.0
09 03:35 SE 20 16.09 Fair CLR 14.1 5.2 55% 76.05 0.0
09 03:15 E 15 16.09 Fair CLR 14.1 4.9 54% 76.07 0.0
09 02:55 E 17 16.09 Fair CLR 14 4.6 53% 76.07 0.0
09 02:35 E 19 16.09 Fair CLR 14 4.5 53% 76.07 0.0
09 02:15 E 17 16.09 Fair CLR 14.5 4.5 51% 76.07 0.0
09 01:55 SE 15 16.09 Fair CLR 14.5 4.4 51% 76.1 0.0
09 01:35 SE 15 16.09 Fair CLR 13.9 4.1 52% 76.1 0.0
09 01:15 E 17 16.09 Fair CLR 15.2 4.5 49% 76.1 0.0
09 00:55 E 19 16.09 Fair CLR 15.8 4.6 27.3 15 48% 76.07 0.0
09 00:35 E 19 16.09 Fair CLR 15.8 4.6 48% 76.07 0.0
09 00:15 E 15 16.09 Fair CLR 15 4.5 50% 76.1 0.0
08 23:55 E 17 16.09 Fair CLR 15.4 4.6 49% 76.1 0.0
08 23:35 E 15 16.09 Fair CLR 15.6 4.6 48% 76.1 0.0
08 23:15 E 13 16.09 Fair CLR 16.2 4.6 46% 76.07 0.0
08 22:55 E 15 16.09 Fair CLR 16.6 5 46% 76.05 0.0
08 22:35 E 13 16.09 Fair CLR 17.1 4.9 45% 76.05 0.0
08 22:15 NE 17 16.09 Fair CLR 17.2 5 45% 76.02 0.0
08 21:55 NE 13 16.09 Fair CLR 17.1 5.1 45% 76 0.0
08 21:35 NE 13 16.09 Fair CLR 18.7 5.2 41% 75.97 0.0
08 21:15 NE 11 16.09 Fair CLR 19.3 5.2 40% 75.95 0.0
08 20:55 NE 9 16.09 Fair CLR 20 5.4 39% 75.95 0.0
08 20:35 NE 11 16.09 Fair CLR 21.6 5.2 34% 75.92 0.0
08 20:15 N 15 16.09 Fair CLR 24.5 4.9 28% 25 75.92 0.0
08 19:55 N 15 16.09 Fair CLR 25.6 4.8 26% 26 75.87 0.0
08 19:35 NE 17 16.09 Fair CLR 26.5 4.2 24% 26 75.87 0.0
08 19:15 NE 22 G 30 16.09 Fair CLR 27.1 4.7 24% 26 75.87 0.0
08 18:55 N 17 16.09 Fair CLR 27.3 4.8 29 26.6 24% 26 75.87 0.0
08 18:35 N 17 G 35 16.09 Fair CLR 27.8 4.8 23% 27 75.87 0.0
08 18:15 N 17 G 43 16.09 Fair CLR 28 4 21% 27 75.87 0.0
08 17:55 N 22 G 30 16.09 Fair CLR 28.6 4.5 21% 27 75.87 0.0
08 17:35 N 30 G 37 16.09 Partly Cloudy SCT090 28.5 5.1 23% 27 75.84 0.0
08 17:15 N 24 G 41 16.09 Fair CLR 28.7 5.1 22% 27 75.87 0.0
08 16:55 N 24 G 39 16.09 Fair CLR 28.7 5.6 23% 27 75.84 0.0
08 16:35 NE 20 G 33 16.09 Fair CLR 28.6 5.3 23% 27 75.87 0.0
08 16:15 N 30 G 43 16.09 Fair CLR 28.7 4.8 22% 27 75.87 0.0
08 15:55 N 20 G 33 16.09 Fair CLR 29 4.8 21% 27 75.9 0.0
08 15:35 N 24 G 48 16.09 Fair CLR 28.6 4.8 22% 27 75.9 0.0
08 15:15 N 31 G 39 16.09 Fair CLR 28.6 4.2 21% 27 75.9 0.0
08 14:55 N 22 G 46 16.09 Fair CLR 28.6 3.5 20% 27 75.9 0.0
08 14:35 N 30 G 43 16.09 Fair CLR 29 3.5 20% 27 75.9 0.0
08 14:15 N 24 G 31 16.09 Fair CLR 28.8 4.3 21% 27 75.9 0.0
08 13:35 NW 22 G 31 16.09 Fair CLR 27.7 5.9 25% 27 75.87 0.0
08 13:15 N 9 G 26 16.09 Fair CLR 27.2 6.8 27% 26 75.9 0.0
08 12:55 NW 15 16.09 Fair CLR 26.6 5.7 27.2 12.6 26% 26 75.92 0.0
08 12:15 W 15 16.09 Fair CLR 25.8 7.2 31% 26 75.95 0.0
08 11:55 NW 20 G 28 16.09 Fair CLR 25.6 7.7 32% 26 75.95 0.0
08 11:35 W 9 G 26 16.09 Fair CLR 24.9 8.2 35% 25 75.97 0.0
08 11:15 W 24 G 33 16.09 Fair CLR 24.6 8 35% 25 75.97 0.0
08 10:55 W 22 G 31 16.09 Fair CLR 23.7 8.4 38% 75.97 0.0
08 10:35 SW 28 G 37 16.09 Fair CLR 23.2 9.1 41% 75.97 0.0
08 10:15 W 26 16.09 Fair CLR 22.1 9.4 44% 76 0.0
08 09:55 SW 24 16.09 Fair CLR 21.8 9.3 45% 76 0.0
08 09:35 SW 30 16.09 Fair CLR 20.1 9.2 50% 76 0.0
08 09:15 SW 28 16.09 Fair CLR 18.7 9.3 55% 76 0.0
08 08:55 SW 26 16.09 Fair CLR 17.8 9.2 57% 76 0.0
08 08:35 SW 24 16.09 Fair CLR 16.5 9 61% 76 0.0
08 08:15 SW 19 16.09 Fair CLR 15.4 8.7 65% 76.02 0.0
08 07:55 SW 15 16.09 Fair CLR 14.4 8.5 68% 76 0.0
08 07:35 SW 11 16.09 Fair CLR 13.4 8.1 71% 76 0.0
08 07:15 SW 17 16.09 Fair CLR 13 7.9 71% 75.97 0.0
08 06:55 SW 17 16.09 Fair CLR 12.5 7.6 16 12 72% 75.97 0.0
08 06:35 SW 17 16.09 Fair CLR 12.5 7.4 71% 75.97 0.0
08 06:15 SW 20 16.09 Fair CLR 13 7.3 69% 75.97 0.0
08 05:55 SW 20 16.09 Fair CLR 13.3 7.2 67% 75.97 0.0
08 05:35 S 22 16.09 Fair CLR 13.1 7.1 67% 75.97 0.0
08 05:15 S 20 16.09 Fair CLR 13 6.6 65% 75.97 0.0
08 04:55 S 22 16.09 Fair CLR 13.1 6.5 65% 75.97 0.0
08 04:35 S 19 16.09 Fair CLR 12.2 5.8 65% 75.97 0.0
08 04:15 S 17 16.09 Fair CLR 12 5.5 65% 75.97 0.0
08 03:55 S 17 16.09 Fair CLR 12.1 5.3 63% 75.97 0.0
08 03:35 S 19 16.09 Fair CLR 12.3 5.3 63% 75.97 0.0
08 03:15 S 19 16.09 Fair CLR 12.5 5.3 62% 75.97 0.0
08 02:55 S 19 16.09 Fair CLR 13.1 5.3 59% 76 0.0
08 02:35 S 17 16.09 Fair CLR 13.1 5.3 59% 76 0.0
08 02:15 S 17 16.09 Fair CLR 13.8 5.3 57% 76.02 0.0
08 01:55 S 17 16.09 Fair CLR 14.4 5.4 55% 76.05 0.0
08 01:35 S 20 16.09 Fair CLR 14.8 5.3 53% 76.05 0.0
08 01:15 S 20 16.09 Fair CLR 15.5 5.2 51% 76.05 0.0
08 00:55 S 24 16.09 Fair CLR 16 5.2 24.8 14.5 49% 76.05 0.0
08 00:35 S 22 16.09 Fair CLR 16.4 5.2 48% 76.07 0.0
08 00:15 S 22 16.09 Fair CLR 16.7 5 46% 76.07 0.0
07 23:55 S 20 16.09 Fair CLR 16.8 4.7 45% 76.1 0.0
07 23:35 S 20 16.09 Fair CLR 17 4.4 43% 76.1 0.0
07 23:15 S 19 16.09 Fair CLR 16.1 4 45% 76.1 0.0
07 22:55 SE 17 16.09 Fair CLR 15 2.7 44% 76.1 0.0
07 22:35 SE 15 16.09 Fair CLR 15.6 1.5 39% 76.12 0.0
07 22:15 S 13 16.09 Fair CLR 16.7 1.1 35% 76.1 0.0
07 21:55 SE 9 16.09 Fair CLR 18.1 1.1 32% 76.1 0.0
07 21:35 SE 7 16.09 Fair CLR 18.9 1 30% 76.07 0.0
07 21:15 SE 7 16.09 Fair CLR 19.1 1.6 31% 76.07 0.0
07 20:55 SW 9 16.09 Fair CLR 19.9 1.2 29% 76.07 0.0
07 20:35 SW 9 16.09 Fair CLR 20.2 1.1 28% 76.05 0.0
07 20:15 SW 9 16.09 Fair CLR 21.6 0.8 25% 76.05 0.0
07 19:55 SW 17 16.09 Fair CLR 23.5 1 23% 76.02 0.0
07 19:35 SW 17 16.09 Fair CLR 24.1 0.8 22% 25 76.02 0.0
07 19:15 SW 22 16.09 Fair CLR 24.6 0.8 21% 25 76.02 0.0
07 18:55 SW 15 16.09 Fair CLR 24.9 1.2 25.4 19.8 21% 25 76 0.0
07 18:15 S 19 16.09 Fair CLR 25.1 2.5 23% 25 76.02 0.0
07 17:55 SW 7 16.09 Fair CLR 24.9 3.3 25% 25 76.05 0.0
07 17:35 SW 17 G 26 16.09 Fair CLR 25.2 3.1 24% 25 76.07 0.0
07 16:55 SW 19 G 31 16.09 Fair CLR 24.7 2.6 24% 25 76.1 0.0
07 16:35 W 15 G 20 16.09 Fair CLR 24.3 3.8 26% 25 76.1 0.0
07 16:15 W 22 G 31 16.09 Fair CLR 24.3 4 27% 25 76.15 0.0
07 15:55 SW 17 G 41 16.09 Fair CLR 23.8 3.1 26% 76.17 0.0
07 15:35 W 15 G 30 16.09 Fair CLR 23.9 4.4 28% 25 76.2 0.0
07 15:15 W 24 G 33 16.09 Fair CLR 23.5 4.1 28% 76.23 0.0
07 14:55 SW 19 G 37 16.09 Fair CLR 22.9 4.6 30% 76.25 0.0
07 14:35 SW 19 G 28 16.09 Fair CLR 22.6 5 32% 76.28 0.0
07 14:15 SW 28 G 35 16.09 Fair CLR 22.9 4.8 31% 76.3 0.0
07 13:55 W 28 16.09 Fair CLR 21.9 3.8 31% 76.33 0.0
07 13:35 W 22 G 31 16.09 Fair CLR 20.9 5.1 36% 76.38 0.0
07 13:15 W 28 G 35 16.09 Fair CLR 20.1 6.3 41% 76.4 0.0
07 12:55 SW 26 G 37 16.09 Fair CLR 19.8 6.7 19.8 6.5 43% 76.4 0.0
07 12:35 W 26 G 33 16.09 Fair CLR 18.7 6.7 46% 76.45 0.0
07 12:15 W 28 G 35 16.09 Fair CLR 18 6.6 47% 76.48 0.0
07 11:55 W 24 G 37 16.09 Fair CLR 17.1 6.9 51% 76.5 0.0
07 11:35 W 24 G 35 16.09 Fair CLR 16.2 6.9 54% 76.5 0.0
07 11:15 W 24 G 35 16.09 Fair CLR 15.5 7 57% 76.53 0.0
07 10:55 W 24 G 33 16.09 Fair CLR 14.6 7.8 64% 76.53 0.0
07 10:35 W 24 16.09 Fair CLR 13.6 8.1 70% 76.53 0.0
07 10:15 W 20 G 26 16.09 Fair CLR 12.3 8.5 78% 76.56 0.0
07 09:55 W 19 16.09 Partly Cloudy SCT005 10.9 8 82% 76.58 0.0
07 09:35 W 19 16.09 Overcast OVC005 10 8.3 89% 8 76.61 0.0
07 09:15 W 17 16.09 Overcast OVC005 8.9 8 94% 7 76.61 0.0
07 08:35 W 22 8.05 Fog/Mist OVC003 7.6 6.9 95% 4 76.61 0.0
07 08:15 W 26 G 31 8.05 Fog/Mist OVC003 7.3 6.8 97% 4 76.61 0.0
07 07:55 W 22 8.05 Fog/Mist OVC003 6.9 6.4 97% 4 76.61 0.0
07 07:35 W 20 11.27 Overcast OVC005 6.7 6.2 97% 3 76.61 0.0
07 07:15 W 24 16.09 Overcast OVC005 6.7 6.1 96% 3 76.61 0.0
07 06:55 W 22 16.09 Overcast OVC007 6.4 5.7 7 6.3 95% 3 76.58 0.0 0.15
07 06:35 W 22 6.44 Fog/Mist OVC007 6.5 5.7 95% 3 76.58 0.0
07 06:15 W 19 16.09 Overcast OVC007 6.4 5.7 95% 3 76.58 0.0
07 05:55 W 20 16.09 Overcast OVC007 6.6 6 96% 3 76.58 0.0
07 05:35 W 15 16.09 Overcast OVC007 6.5 6 97% 4 76.61 0.0
07 05:15 W 15 16.09 Overcast OVC007 6.6 6.2 97% 4 76.61 0.0
07 04:55 W 13 11.27 Overcast OVC005 6.6 6.2 97% 4 76.63 0.0
07 04:35 NW 11 16.09 Overcast OVC005 6.5 6.1 97% 5 76.61 0.0
07 04:15 NW 11 16.09 Overcast OVC005 6.5 6.1 97% 5 76.61 0.0
07 03:55 NW 9 16.09 Overcast OVC005 6.6 6.2 97% 5 76.61 0.0 0.15
07 03:35 NW 7 16.09 Overcast OVC003 6.7 6.3 97% 6 76.63 0.0
07 03:15 NW 7 11.27 Overcast OVC003 6.6 6.2 97% 5 76.61 0.0
07 02:55 NW 11 11.27 Overcast OVC003 6.7 6.3 97% 5 76.63 0.0 0.1
07 02:35 NW 7 8.05 Rain BKN003 BKN012 OVC055 6.7 6.4 98% 6 76.66 0.0 0.1
07 02:15 NW 15 8.05 Rain BKN003 BKN014 OVC050 6.7 6.2 97% 4 76.68 0.0 0.05
07 01:55 NW 9 8.05 Rain SCT005 BKN021 OVC050 6.8 6.2 96% 5 76.68 0.0 0.03
07 01:35 N 9 11.27 Light Drizzle SCT006 BKN055 OVC065 6.8 6.1 95% 5 76.68 0.0
07 01:15 N 11 16.09 Drizzle SCT050 OVC070 6.8 6 95% 5 76.68 0.0
07 00:55 N 13 16.09 Light Rain SCT050 OVC070 7 5.8 14.2 7 92% 5 76.68 0.0 0.05 0.05
07 00:35 N 17 11.27 Light Rain SCT043 OVC060 7.5 5.6 88% 5 76.68 0.0 0.03
07 00:15 N 11 16.09 Rain OVC060 8.2 4.4 77% 7 76.68 0.0
06 23:55 N 17 16.09 Overcast OVC050 8.9 3.6 70% 7 76.66 0.0
06 23:35 N 15 16.09 Overcast OVC050 9.5 2.6 62% 8 76.68 0.0
06 23:15 NE 15 16.09 Overcast OVC050 9.7 2.5 61% 8 76.68 0.0
06 22:55 N 22 G 31 16.09 Overcast OVC050 10 2.5 60% 7 76.68 0.0
06 22:35 N 20 16.09 Overcast BKN044 OVC050 10.1 2.2 58% 76.66 0.0
06 22:15 N 22 16.09 Overcast OVC050 10.3 2.1 57% 76.61 0.0
06 21:55 N 24 G 33 16.09 Overcast OVC050 10.5 2.1 56% 76.61 0.0
06 21:35 N 24 16.09 Overcast OVC050 10.7 2.3 56% 76.58 0.0
06 21:15 NE 30 G 35 16.09 Overcast OVC050 11 2.5 56% 76.5 0.0
06 20:55 NE 24 16.09 Overcast OVC060 11.5 2.8 55% 76.48 0.0
06 20:35 NE 24 16.09 Mostly Cloudy BKN060 11.6 3 56% 76.43 0.0
06 20:15 NE 20 16.09 Partly Cloudy SCT060 11.5 3 56% 76.38 0.0
06 19:55 NE 24 16.09 Partly Cloudy SCT050 12.2 3 54% 76.35 0.0
06 19:35 NE 24 16.09 Mostly Cloudy SCT047 BKN050 12.7 3 52% 76.33 0.0
06 19:15 NE 20 16.09 Mostly Cloudy BKN050 BKN055 13.6 3.3 50% 76.33 0.0
06 18:35 NE 19 16.09 Partly Cloudy SCT046 SCT050 13.7 3.3 50% 76.28 0.0
06 18:15 NE 13 16.09 Mostly Cloudy BKN044 15.3 3.1 44% 76.3 0.0
06 17:55 NE 17 16.09 Mostly Cloudy SCT044 BKN055 14.4 3.3 48% 76.28 0.0
06 17:35 NE 6 16.09 Mostly Cloudy BKN060 15.5 3.2 44% 76.28 0.0
06 17:15 E 11 16.09 Mostly Cloudy SCT042 BKN048 BKN060 13.4 3.2 50% 76.33 0.0
06 16:55 E 19 16.09 Mostly Cloudy BKN045 BKN050 15 3 45% 76.33 0.0
06 16:35 NE 13 16.09 Mostly Cloudy SCT041 BKN048 BKN050 13.2 3.1 51% 76.33 0.0
06 16:15 NE 15 16.09 Overcast SCT037 SCT047 OVC060 14.2 3.3 48% 76.33 0.0
06 15:55 NE 11 16.09 Overcast BKN037 OVC060 13.9 3.2 49% 76.33 0.0
06 15:35 E 19 16.09 Overcast OVC035 13 3.3 52% 76.35 0.0
06 15:15 Calm 16.09 Overcast OVC035 12 3.2 55% 76.38 0.0
06 14:55 NE 11 16.09 Overcast OVC035 12.3 3.3 54% 76.38 0.0
06 14:35 E 15 16.09 Overcast BKN035 BKN041 OVC046 12.3 3.2 54% 76.35 0.0
06 14:15 E 13 16.09 Overcast SCT033 SCT040 OVC046 13.5 3.5 51% 76.35 0.0
06 13:55 E 13 16.09 Overcast BKN032 OVC037 12 3.2 55% 76.38 0.0
06 13:35 E 11 16.09 Overcast BKN030 OVC037 11.5 3 56% 76.4 0.0
06 13:15 E 17 16.09 Overcast SCT026 OVC037 10.7 3.2 60% 76.4 0.0
06 12:55 NE 7 16.09 Overcast OVC024 9.5 2.9 9.6 7.2 64% 9 76.45 0.0
06 12:35 NE 15 16.09 Overcast OVC022 9.5 3.1 65% 8 76.45 0.0
06 12:15 E 17 16.09 Overcast OVC022 9.2 3.2 66% 7 76.45 0.0
06 11:55 E 19 16.09 Overcast OVC020 8.6 3.1 69% 6 76.43 0.0
06 11:35 E 17 16.09 Overcast OVC020 8.3 3 70% 6 76.4 0.0
06 11:15 E 19 16.09 Overcast OVC020 8.1 3.1 71% 5 76.4 0.0
06 10:55 E 15 16.09 Overcast OVC018 8 3.1 71% 6 76.38 0.0
06 10:35 E 19 16.09 Overcast OVC018 8 3.3 72% 5 76.35 0.0
06 10:15 E 19 16.09 Overcast OVC016 7.8 3.5 75% 5 76.35 0.0
06 09:55 E 20 16.09 Overcast OVC016 7.9 3.5 74% 5 76.33 0.0
06 09:35 E 26 16.09 Overcast OVC016 7.9 3.7 75% 4 76.25 0.0
Date Time (cdt) Wind (kph) Vis. (km) Weather Sky Cond. Air Dwpt Max. Min. Relative Humidity Wind Chill (°C) Heat Index (°C) altimeter (cm) sea level (mb) 1 hr 3 hr 6 hr
6 hour
Temperature (ºC) Pressure Precipitation (cm)